YBNA Airport Information

Runway Information
Runway 06 Length 6234 ft width 98 ft
Elevation 7 ft Threshold 0 ft Heading 74
Runway 24 Length 6234 ft Width 98 ft
Elevation 7 ft Threshold 0 ft Heading 254
Airport Frequencies
Type CTAF Name CTAF Frequency 124.2 MHZ
Type FSS Name BRISBANE C Frequency 120.3 MHZ
Airport Navaids
Type NDB Name Ballina Frequency 206 KHZ
Airport Weather Information & NOTAM
ADDS - METARS form results

(2152 UTC 27 September 2020)
Data provider http://aviationweather.gov/metar/data/
 
METAR text: YBNA 272100Z AUTO 26007KT 9999 // BKN055 OVC091 15/09 Q1025
Conditions at: YBNA (BALLINA BYRON G., AU) observed 2100 UTC 27 September 2020
Temperature: 15.0°C (59°F)
Dewpoint: 9.0°C (48°F) [RH = 67%]
Pressure (altimeter): 30.27 inches Hg (1025.0 mb)
Winds: from the W (260 degrees) at 8 MPH (7 knots; 3.6 m/s)
Visibility: 6 or more miles (10+ km)
Ceiling: 5500 feet AGL
Clouds: broken clouds at 5500 feet AGL
overcast cloud deck at 9100 feet AGL
Weather: no significant weather observed at this time